sensor_id;sensor_type;location;lat;lon;timestamp;P1;durP1;ratioP1;P2;durP2;ratioP2
7971;SDS011;4031;49.758;6.120;2023-07-13T00:00:03;1.90;;;1.80;;
7971;SDS011;4031;49.758;6.120;2023-07-13T00:02:36;2.20;;;1.80;;
7971;SDS011;4031;49.758;6.120;2023-07-13T00:05:02;2.10;;;1.93;;
7971;SDS011;4031;49.758;6.120;2023-07-13T00:07:28;2.30;;;2.10;;
7971;SDS011;4031;49.758;6.120;2023-07-13T00:09:56;2.60;;;1.90;;
7971;SDS011;4031;49.758;6.120;2023-07-13T00:12:29;2.40;;;2.20;;
7971;SDS011;4031;49.758;6.120;2023-07-13T00:15:07;2.40;;;2.10;;
7971;SDS011;4031;49.758;6.120;2023-07-13T00:17:47;3.20;;;1.83;;
7971;SDS011;4031;49.758;6.120;2023-07-13T00:20:18;2.70;;;2.13;;
7971;SDS011;4031;49.758;6.120;2023-07-13T00:22:50;2.40;;;2.20;;
7971;SDS011;4031;49.758;6.120;2023-07-13T00:25:19;6.27;;;2.53;;
7971;SDS011;4031;49.758;6.120;2023-07-13T00:27:47;2.20;;;2.00;;
7971;SDS011;4031;49.758;6.120;2023-07-13T00:30:14;2.87;;;2.07;;
7971;SDS011;4031;49.758;6.120;2023-07-13T00:32:40;1.83;;;1.43;;
7971;SDS011;4031;49.758;6.120;2023-07-13T00:35:06;2.20;;;2.00;;
7971;SDS011;4031;49.758;6.120;2023-07-13T00:37:32;3.73;;;2.00;;
7971;SDS011;4031;49.758;6.120;2023-07-13T00:40:00;1.97;;;1.67;;
7971;SDS011;4031;49.758;6.120;2023-07-13T00:42:28;3.43;;;2.27;;
7971;SDS011;4031;49.758;6.120;2023-07-13T00:45:04;1.83;;;1.73;;
7971;SDS011;4031;49.758;6.120;2023-07-13T00:47:51;2.47;;;2.27;;
7971;SDS011;4031;49.758;6.120;2023-07-13T00:50:17;2.53;;;2.33;;
7971;SDS011;4031;49.758;6.120;2023-07-13T00:52:46;1.97;;;1.80;;
7971;SDS011;4031;49.758;6.120;2023-07-13T00:55:16;3.43;;;2.60;;
7971;SDS011;4031;49.758;6.120;2023-07-13T00:57:43;1.90;;;1.80;;
7971;SDS011;4031;49.758;6.120;2023-07-13T01:00:09;1.83;;;1.73;;
7971;SDS011;4031;49.758;6.120;2023-07-13T01:02:41;2.20;;;2.10;;
7971;SDS011;4031;49.758;6.120;2023-07-13T01:05:12;3.30;;;2.63;;
7971;SDS011;4031;49.758;6.120;2023-07-13T01:07:43;3.77;;;2.03;;
7971;SDS011;4031;49.758;6.120;2023-07-13T01:10:10;2.40;;;2.20;;
7971;SDS011;4031;49.758;6.120;2023-07-13T01:12:39;2.90;;;2.20;;
7971;SDS011;4031;49.758;6.120;2023-07-13T01:15:05;3.37;;;2.13;;
7971;SDS011;4031;49.758;6.120;2023-07-13T01:18:25;2.20;;;2.00;;
7971;SDS011;4031;49.758;6.120;2023-07-13T01:21:00;4.67;;;2.90;;
7971;SDS011;4031;49.758;6.120;2023-07-13T01:23:29;3.30;;;2.80;;
7971;SDS011;4031;49.758;6.120;2023-07-13T01:25:57;1.97;;;1.87;;
7971;SDS011;4031;49.758;6.120;2023-07-13T01:28:24;2.03;;;1.90;;
7971;SDS011;4031;49.758;6.120;2023-07-13T01:30:55;2.13;;;1.83;;
7971;SDS011;4031;49.758;6.120;2023-07-13T01:33:23;3.40;;;2.20;;
7971;SDS011;4031;49.758;6.120;2023-07-13T01:35:50;2.47;;;2.27;;
7971;SDS011;4031;49.758;6.120;2023-07-13T01:38:18;2.57;;;2.20;;
7971;SDS011;4031;49.758;6.120;2023-07-13T01:40:47;2.17;;;1.97;;
7971;SDS011;4031;49.758;6.120;2023-07-13T01:43:13;2.43;;;2.23;;
7971;SDS011;4031;49.758;6.120;2023-07-13T01:45:39;4.20;;;2.87;;
7971;SDS011;4031;49.758;6.120;2023-07-13T01:48:05;2.67;;;2.47;;
7971;SDS011;4031;49.758;6.120;2023-07-13T01:50:33;2.57;;;2.37;;
7971;SDS011;4031;49.758;6.120;2023-07-13T01:52:59;2.77;;;2.23;;
7971;SDS011;4031;49.758;6.120;2023-07-13T01:55:25;2.00;;;1.90;;
7971;SDS011;4031;49.758;6.120;2023-07-13T01:57:51;4.73;;;2.47;;
7971;SDS011;4031;49.758;6.120;2023-07-13T02:00:17;3.33;;;2.50;;
7971;SDS011;4031;49.758;6.120;2023-07-13T02:02:43;6.20;;;2.40;;
7971;SDS011;4031;49.758;6.120;2023-07-13T02:05:09;2.20;;;2.10;;
7971;SDS011;4031;49.758;6.120;2023-07-13T02:07:36;2.60;;;2.40;;
7971;SDS011;4031;49.758;6.120;2023-07-13T02:10:02;2.53;;;2.17;;
7971;SDS011;4031;49.758;6.120;2023-07-13T02:12:29;2.17;;;1.97;;
7971;SDS011;4031;49.758;6.120;2023-07-13T02:14:54;2.40;;;2.20;;
7971;SDS011;4031;49.758;6.120;2023-07-13T02:17:20;1.87;;;1.77;;
7971;SDS011;4031;49.758;6.120;2023-07-13T02:19:46;3.57;;;2.87;;
7971;SDS011;4031;49.758;6.120;2023-07-13T02:22:12;3.50;;;2.40;;
7971;SDS011;4031;49.758;6.120;2023-07-13T02:24:38;4.90;;;2.70;;
7971;SDS011;4031;49.758;6.120;2023-07-13T02:27:03;2.73;;;2.00;;
7971;SDS011;4031;49.758;6.120;2023-07-13T02:29:29;2.37;;;2.10;;
7971;SDS011;4031;49.758;6.120;2023-07-13T02:31:55;3.07;;;2.77;;
7971;SDS011;4031;49.758;6.120;2023-07-13T02:34:21;3.20;;;2.23;;
7971;SDS011;4031;49.758;6.120;2023-07-13T02:36:47;4.43;;;2.33;;
7971;SDS011;4031;49.758;6.120;2023-07-13T02:39:12;1.77;;;1.67;;
7971;SDS011;4031;49.758;6.120;2023-07-13T02:41:38;2.83;;;2.40;;
7971;SDS011;4031;49.758;6.120;2023-07-13T02:44:04;5.03;;;1.90;;
7971;SDS011;4031;49.758;6.120;2023-07-13T02:46:31;1.77;;;1.67;;
7971;SDS011;4031;49.758;6.120;2023-07-13T02:48:59;2.80;;;1.90;;
7971;SDS011;4031;49.758;6.120;2023-07-13T02:51:25;3.60;;;2.00;;
7971;SDS011;4031;49.758;6.120;2023-07-13T02:53:51;1.90;;;1.80;;
7971;SDS011;4031;49.758;6.120;2023-07-13T02:56:17;1.67;;;1.57;;
7971;SDS011;4031;49.758;6.120;2023-07-13T02:58:49;2.00;;;1.90;;
7971;SDS011;4031;49.758;6.120;2023-07-13T03:01:15;1.70;;;1.50;;
7971;SDS011;4031;49.758;6.120;2023-07-13T03:03:45;3.70;;;2.07;;
7971;SDS011;4031;49.758;6.120;2023-07-13T03:06:12;2.30;;;1.13;;
7971;SDS011;4031;49.758;6.120;2023-07-13T03:08:38;1.60;;;1.50;;
7971;SDS011;4031;49.758;6.120;2023-07-13T03:11:09;2.90;;;1.73;;
7971;SDS011;4031;49.758;6.120;2023-07-13T03:13:40;2.23;;;1.93;;
7971;SDS011;4031;49.758;6.120;2023-07-13T03:16:07;2.87;;;1.80;;
7971;SDS011;4031;49.758;6.120;2023-07-13T03:18:35;1.90;;;1.23;;
7971;SDS011;4031;49.758;6.120;2023-07-13T03:21:01;2.83;;;1.47;;
7971;SDS011;4031;49.758;6.120;2023-07-13T03:23:28;2.73;;;1.47;;
7971;SDS011;4031;49.758;6.120;2023-07-13T03:26:07;2.93;;;1.80;;
7971;SDS011;4031;49.758;6.120;2023-07-13T03:28:39;2.10;;;1.43;;
7971;SDS011;4031;49.758;6.120;2023-07-13T03:31:15;2.57;;;1.97;;
7971;SDS011;4031;49.758;6.120;2023-07-13T03:33:44;3.77;;;2.20;;
7971;SDS011;4031;49.758;6.120;2023-07-13T03:36:15;1.60;;;1.50;;
7971;SDS011;4031;49.758;6.120;2023-07-13T03:38:45;9.97;;;2.27;;
7971;SDS011;4031;49.758;6.120;2023-07-13T03:41:18;2.03;;;1.80;;
7971;SDS011;4031;49.758;6.120;2023-07-13T03:43:44;1.73;;;1.60;;
7971;SDS011;4031;49.758;6.120;2023-07-13T03:46:10;3.60;;;2.27;;
7971;SDS011;4031;49.758;6.120;2023-07-13T03:48:36;2.20;;;1.57;;
7971;SDS011;4031;49.758;6.120;2023-07-13T03:51:02;2.67;;;1.80;;
7971;SDS011;4031;49.758;6.120;2023-07-13T03:53:27;2.13;;;1.93;;
7971;SDS011;4031;49.758;6.120;2023-07-13T03:55:53;4.33;;;1.83;;
7971;SDS011;4031;49.758;6.120;2023-07-13T03:58:22;3.77;;;1.80;;
7971;SDS011;4031;49.758;6.120;2023-07-13T04:00:57;1.93;;;1.30;;
7971;SDS011;4031;49.758;6.120;2023-07-13T04:03:24;2.57;;;1.60;;
7971;SDS011;4031;49.758;6.120;2023-07-13T04:05:52;1.53;;;1.43;;
7971;SDS011;4031;49.758;6.120;2023-07-13T04:08:19;5.30;;;2.00;;
7971;SDS011;4031;49.758;6.120;2023-07-13T04:10:45;7.43;;;1.63;;
7971;SDS011;4031;49.758;6.120;2023-07-13T04:13:11;2.90;;;1.80;;
7971;SDS011;4031;49.758;6.120;2023-07-13T04:15:37;1.53;;;1.30;;
7971;SDS011;4031;49.758;6.120;2023-07-13T04:18:04;4.70;;;2.60;;
7971;SDS011;4031;49.758;6.120;2023-07-13T04:20:29;1.60;;;1.20;;
7971;SDS011;4031;49.758;6.120;2023-07-13T04:22:55;3.13;;;1.33;;
7971;SDS011;4031;49.758;6.120;2023-07-13T04:25:22;2.00;;;1.20;;
7971;SDS011;4031;49.758;6.120;2023-07-13T04:27:49;3.00;;;1.80;;
7971;SDS011;4031;49.758;6.120;2023-07-13T04:30:14;1.93;;;1.37;;
7971;SDS011;4031;49.758;6.120;2023-07-13T04:32:40;1.70;;;1.60;;
7971;SDS011;4031;49.758;6.120;2023-07-13T04:35:06;3.87;;;1.77;;
7971;SDS011;4031;49.758;6.120;2023-07-13T04:37:32;1.47;;;1.37;;
7971;SDS011;4031;49.758;6.120;2023-07-13T04:39:58;1.20;;;1.10;;
7971;SDS011;4031;49.758;6.120;2023-07-13T04:42:23;1.90;;;1.70;;
7971;SDS011;4031;49.758;6.120;2023-07-13T04:44:50;1.87;;;1.57;;
7971;SDS011;4031;49.758;6.120;2023-07-13T04:47:16;1.73;;;1.50;;
7971;SDS011;4031;49.758;6.120;2023-07-13T04:49:43;4.10;;;1.70;;
7971;SDS011;4031;49.758;6.120;2023-07-13T04:52:10;2.73;;;1.50;;
7971;SDS011;4031;49.758;6.120;2023-07-13T04:54:36;2.87;;;1.90;;
7971;SDS011;4031;49.758;6.120;2023-07-13T04:57:03;1.30;;;1.20;;
7971;SDS011;4031;49.758;6.120;2023-07-13T04:59:33;1.90;;;1.47;;
7971;SDS011;4031;49.758;6.120;2023-07-13T05:01:59;2.00;;;1.80;;
7971;SDS011;4031;49.758;6.120;2023-07-13T05:04:26;4.23;;;1.53;;
7971;SDS011;4031;49.758;6.120;2023-07-13T05:06:52;2.00;;;1.60;;
7971;SDS011;4031;49.758;6.120;2023-07-13T05:09:18;3.10;;;1.60;;
7971;SDS011;4031;49.758;6.120;2023-07-13T05:11:43;3.10;;;1.30;;
7971;SDS011;4031;49.758;6.120;2023-07-13T05:14:10;3.60;;;1.50;;
7971;SDS011;4031;49.758;6.120;2023-07-13T05:16:37;1.77;;;1.40;;
7971;SDS011;4031;49.758;6.120;2023-07-13T05:19:02;2.03;;;1.30;;
7971;SDS011;4031;49.758;6.120;2023-07-13T05:21:28;1.50;;;1.30;;
7971;SDS011;4031;49.758;6.120;2023-07-13T05:23:54;3.77;;;1.83;;
7971;SDS011;4031;49.758;6.120;2023-07-13T05:26:20;1.47;;;1.10;;
7971;SDS011;4031;49.758;6.120;2023-07-13T05:28:46;1.63;;;0.97;;
7971;SDS011;4031;49.758;6.120;2023-07-13T05:31:12;1.07;;;1.00;;
7971;SDS011;4031;49.758;6.120;2023-07-13T05:33:38;1.83;;;1.53;;
7971;SDS011;4031;49.758;6.120;2023-07-13T05:36:05;7.63;;;2.10;;
7971;SDS011;4031;49.758;6.120;2023-07-13T05:38:32;4.00;;;1.43;;
7971;SDS011;4031;49.758;6.120;2023-07-13T05:40:58;1.87;;;1.27;;
7971;SDS011;4031;49.758;6.120;2023-07-13T05:43:23;2.40;;;1.20;;
7971;SDS011;4031;49.758;6.120;2023-07-13T05:45:53;2.17;;;1.73;;
7971;SDS011;4031;49.758;6.120;2023-07-13T05:48:20;1.27;;;1.17;;
7971;SDS011;4031;49.758;6.120;2023-07-13T05:50:46;3.40;;;1.40;;
7971;SDS011;4031;49.758;6.120;2023-07-13T05:53:12;3.03;;;1.63;;
7971;SDS011;4031;49.758;6.120;2023-07-13T05:55:41;4.03;;;1.60;;
7971;SDS011;4031;49.758;6.120;2023-07-13T05:58:08;1.93;;;1.33;;
7971;SDS011;4031;49.758;6.120;2023-07-13T06:00:34;2.90;;;1.40;;
7971;SDS011;4031;49.758;6.120;2023-07-13T06:02:59;5.10;;;1.40;;
7971;SDS011;4031;49.758;6.120;2023-07-13T06:05:25;2.70;;;1.70;;
7971;SDS011;4031;49.758;6.120;2023-07-13T06:07:52;4.63;;;1.50;;
7971;SDS011;4031;49.758;6.120;2023-07-13T06:10:17;2.07;;;1.53;;
7971;SDS011;4031;49.758;6.120;2023-07-13T06:12:43;1.87;;;1.57;;
7971;SDS011;4031;49.758;6.120;2023-07-13T06:15:09;3.30;;;1.80;;
7971;SDS011;4031;49.758;6.120;2023-07-13T06:17:35;1.20;;;1.10;;
7971;SDS011;4031;49.758;6.120;2023-07-13T06:20:00;1.93;;;1.10;;
7971;SDS011;4031;49.758;6.120;2023-07-13T06:22:26;2.70;;;1.33;;
7971;SDS011;4031;49.758;6.120;2023-07-13T06:24:52;2.13;;;1.43;;
7971;SDS011;4031;49.758;6.120;2023-07-13T06:27:18;3.73;;;1.20;;
7971;SDS011;4031;49.758;6.120;2023-07-13T06:29:43;3.73;;;1.17;;
7971;SDS011;4031;49.758;6.120;2023-07-13T06:32:10;1.90;;;1.10;;
7971;SDS011;4031;49.758;6.120;2023-07-13T06:34:36;2.50;;;1.17;;
7971;SDS011;4031;49.758;6.120;2023-07-13T06:37:01;2.10;;;1.13;;
7971;SDS011;4031;49.758;6.120;2023-07-13T06:39:27;4.57;;;1.73;;
7971;SDS011;4031;49.758;6.120;2023-07-13T06:41:53;3.53;;;1.30;;
7971;SDS011;4031;49.758;6.120;2023-07-13T06:44:19;2.50;;;0.90;;
7971;SDS011;4031;49.758;6.120;2023-07-13T06:46:44;2.33;;;1.27;;
7971;SDS011;4031;49.758;6.120;2023-07-13T06:49:10;2.50;;;1.97;;
7971;SDS011;4031;49.758;6.120;2023-07-13T06:51:36;2.47;;;1.33;;
7971;SDS011;4031;49.758;6.120;2023-07-13T06:54:01;1.20;;;1.07;;
7971;SDS011;4031;49.758;6.120;2023-07-13T06:56:28;2.33;;;1.00;;
7971;SDS011;4031;49.758;6.120;2023-07-13T06:58:53;3.73;;;0.83;;
7971;SDS011;4031;49.758;6.120;2023-07-13T07:01:19;1.03;;;0.90;;
7971;SDS011;4031;49.758;6.120;2023-07-13T07:03:45;2.73;;;0.97;;
7971;SDS011;4031;49.758;6.120;2023-07-13T07:06:13;1.17;;;0.83;;
7971;SDS011;4031;49.758;6.120;2023-07-13T07:08:42;1.53;;;0.70;;
7971;SDS011;4031;49.758;6.120;2023-07-13T07:11:13;1.57;;;0.63;;
7971;SDS011;4031;49.758;6.120;2023-07-13T07:13:42;3.40;;;1.00;;
7971;SDS011;4031;49.758;6.120;2023-07-13T07:16:08;3.10;;;0.83;;
7971;SDS011;4031;49.758;6.120;2023-07-13T07:18:34;2.63;;;0.70;;
7971;SDS011;4031;49.758;6.120;2023-07-13T07:21:00;1.50;;;0.90;;
7971;SDS011;4031;49.758;6.120;2023-07-13T07:23:26;1.43;;;0.70;;
7971;SDS011;4031;49.758;6.120;2023-07-13T07:25:52;1.23;;;0.90;;
7971;SDS011;4031;49.758;6.120;2023-07-13T07:28:18;3.07;;;0.77;;
7971;SDS011;4031;49.758;6.120;2023-07-13T07:30:44;6.10;;;1.13;;
7971;SDS011;4031;49.758;6.120;2023-07-13T07:33:11;1.70;;;1.10;;
7971;SDS011;4031;49.758;6.120;2023-07-13T07:35:37;2.00;;;0.77;;
7971;SDS011;4031;49.758;6.120;2023-07-13T07:38:03;1.63;;;1.00;;
7971;SDS011;4031;49.758;6.120;2023-07-13T07:40:28;1.70;;;1.00;;
7971;SDS011;4031;49.758;6.120;2023-07-13T07:42:54;3.90;;;0.67;;
7971;SDS011;4031;49.758;6.120;2023-07-13T07:45:20;1.63;;;0.80;;
7971;SDS011;4031;49.758;6.120;2023-07-13T07:47:46;2.23;;;0.90;;
7971;SDS011;4031;49.758;6.120;2023-07-13T07:50:12;3.83;;;0.77;;
7971;SDS011;4031;49.758;6.120;2023-07-13T07:52:38;1.67;;;0.97;;
7971;SDS011;4031;49.758;6.120;2023-07-13T07:55:04;5.03;;;1.13;;
7971;SDS011;4031;49.758;6.120;2023-07-13T07:57:32;2.40;;;1.03;;
7971;SDS011;4031;49.758;6.120;2023-07-13T07:59:59;1.43;;;0.77;;
7971;SDS011;4031;49.758;6.120;2023-07-13T08:02:25;2.60;;;1.00;;
7971;SDS011;4031;49.758;6.120;2023-07-13T08:04:51;2.70;;;1.17;;
7971;SDS011;4031;49.758;6.120;2023-07-13T08:07:17;5.50;;;1.40;;
7971;SDS011;4031;49.758;6.120;2023-07-13T08:09:43;2.07;;;0.80;;
7971;SDS011;4031;49.758;6.120;2023-07-13T08:12:09;1.40;;;0.90;;
7971;SDS011;4031;49.758;6.120;2023-07-13T08:14:35;2.07;;;0.90;;
7971;SDS011;4031;49.758;6.120;2023-07-13T08:17:00;2.73;;;0.83;;
7971;SDS011;4031;49.758;6.120;2023-07-13T08:19:26;0.80;;;0.60;;
7971;SDS011;4031;49.758;6.120;2023-07-13T08:21:52;2.90;;;0.67;;
7971;SDS011;4031;49.758;6.120;2023-07-13T08:24:17;2.07;;;0.70;;
7971;SDS011;4031;49.758;6.120;2023-07-13T08:26:44;1.77;;;0.60;;
7971;SDS011;4031;49.758;6.120;2023-07-13T08:29:11;1.63;;;0.80;;
7971;SDS011;4031;49.758;6.120;2023-07-13T08:31:37;1.33;;;0.50;;
7971;SDS011;4031;49.758;6.120;2023-07-13T08:34:02;1.13;;;0.70;;
7971;SDS011;4031;49.758;6.120;2023-07-13T08:36:28;1.63;;;0.80;;
7971;SDS011;4031;49.758;6.120;2023-07-13T08:38:54;1.00;;;0.90;;
7971;SDS011;4031;49.758;6.120;2023-07-13T08:41:20;3.17;;;1.03;;
7971;SDS011;4031;49.758;6.120;2023-07-13T08:43:49;1.77;;;0.83;;
7971;SDS011;4031;49.758;6.120;2023-07-13T08:46:21;1.00;;;0.80;;
7971;SDS011;4031;49.758;6.120;2023-07-13T08:49:04;0.90;;;0.60;;
7971;SDS011;4031;49.758;6.120;2023-07-13T08:51:43;1.27;;;0.60;;
7971;SDS011;4031;49.758;6.120;2023-07-13T08:54:28;1.37;;;0.77;;
7971;SDS011;4031;49.758;6.120;2023-07-13T08:57:02;1.23;;;0.77;;
7971;SDS011;4031;49.758;6.120;2023-07-13T08:59:38;1.80;;;1.00;;
7971;SDS011;4031;49.758;6.120;2023-07-13T09:04:54;0.80;;;0.50;;
7971;SDS011;4031;49.758;6.120;2023-07-13T09:10:49;1.80;;;0.77;;
7971;SDS011;4031;49.758;6.120;2023-07-13T09:13:39;1.63;;;0.80;;
7971;SDS011;4031;49.758;6.120;2023-07-13T09:16:08;0.70;;;0.60;;
7971;SDS011;4031;49.758;6.120;2023-07-13T09:18:46;2.43;;;0.80;;
7971;SDS011;4031;49.758;6.120;2023-07-13T09:21:17;3.37;;;0.90;;
7971;SDS011;4031;49.758;6.120;2023-07-13T09:23:50;1.77;;;0.80;;
7971;SDS011;4031;49.758;6.120;2023-07-13T09:26:22;1.63;;;0.80;;
7971;SDS011;4031;49.758;6.120;2023-07-13T09:28:54;1.00;;;0.60;;
7971;SDS011;4031;49.758;6.120;2023-07-13T09:31:39;1.00;;;0.80;;
7971;SDS011;4031;49.758;6.120;2023-07-13T09:34:13;1.23;;;0.80;;
7971;SDS011;4031;49.758;6.120;2023-07-13T09:36:39;1.00;;;0.60;;
7971;SDS011;4031;49.758;6.120;2023-07-13T09:44:36;3.80;;;0.70;;
7971;SDS011;4031;49.758;6.120;2023-07-13T09:47:18;3.30;;;0.90;;
7971;SDS011;4031;49.758;6.120;2023-07-13T09:50:14;2.97;;;0.80;;
7971;SDS011;4031;49.758;6.120;2023-07-13T09:58:17;3.80;;;0.80;;
7971;SDS011;4031;49.758;6.120;2023-07-13T10:00:54;0.50;;;0.40;;
7971;SDS011;4031;49.758;6.120;2023-07-13T10:03:26;0.77;;;0.70;;
7971;SDS011;4031;49.758;6.120;2023-07-13T10:06:17;1.90;;;0.80;;
7971;SDS011;4031;49.758;6.120;2023-07-13T10:08:47;1.07;;;0.70;;
7971;SDS011;4031;49.758;6.120;2023-07-13T10:13:53;1.00;;;0.60;;
7971;SDS011;4031;49.758;6.120;2023-07-13T10:16:21;2.67;;;0.90;;
7971;SDS011;4031;49.758;6.120;2023-07-13T10:21:58;0.83;;;0.80;;
7971;SDS011;4031;49.758;6.120;2023-07-13T10:24:54;0.67;;;0.47;;
7971;SDS011;4031;49.758;6.120;2023-07-13T10:27:32;0.70;;;0.50;;
7971;SDS011;4031;49.758;6.120;2023-07-13T10:30:11;3.53;;;0.63;;
7971;SDS011;4031;49.758;6.120;2023-07-13T10:32:48;1.07;;;0.60;;
7971;SDS011;4031;49.758;6.120;2023-07-13T10:35:15;1.90;;;0.60;;
7971;SDS011;4031;49.758;6.120;2023-07-13T10:37:53;1.73;;;0.70;;
7971;SDS011;4031;49.758;6.120;2023-07-13T10:40:34;1.37;;;0.60;;
7971;SDS011;4031;49.758;6.120;2023-07-13T10:43:08;0.90;;;0.60;;
7971;SDS011;4031;49.758;6.120;2023-07-13T10:45:43;0.70;;;0.53;;
7971;SDS011;4031;49.758;6.120;2023-07-13T10:48:13;2.13;;;0.90;;
7971;SDS011;4031;49.758;6.120;2023-07-13T10:50:40;1.53;;;0.70;;
7971;SDS011;4031;49.758;6.120;2023-07-13T10:53:27;1.07;;;0.77;;
7971;SDS011;4031;49.758;6.120;2023-07-13T10:58:44;1.87;;;1.10;;
7971;SDS011;4031;49.758;6.120;2023-07-13T11:01:15;1.33;;;0.77;;
7971;SDS011;4031;49.758;6.120;2023-07-13T11:08:54;0.80;;;0.60;;
7971;SDS011;4031;49.758;6.120;2023-07-13T11:16:41;2.10;;;0.73;;
7971;SDS011;4031;49.758;6.120;2023-07-13T11:33:09;1.53;;;0.60;;
7971;SDS011;4031;49.758;6.120;2023-07-13T11:35:53;3.00;;;0.90;;
7971;SDS011;4031;49.758;6.120;2023-07-13T11:38:33;2.60;;;1.23;;
7971;SDS011;4031;49.758;6.120;2023-07-13T11:41:10;2.07;;;0.80;;
7971;SDS011;4031;49.758;6.120;2023-07-13T11:43:51;1.80;;;0.77;;
7971;SDS011;4031;49.758;6.120;2023-07-13T11:48:51;1.27;;;0.60;;
7971;SDS011;4031;49.758;6.120;2023-07-13T11:51:22;0.90;;;0.60;;
7971;SDS011;4031;49.758;6.120;2023-07-13T11:53:55;1.03;;;0.83;;
7971;SDS011;4031;49.758;6.120;2023-07-13T11:56:26;1.63;;;0.60;;
7971;SDS011;4031;49.758;6.120;2023-07-13T11:58:53;5.93;;;0.80;;
7971;SDS011;4031;49.758;6.120;2023-07-13T12:01:30;0.70;;;0.50;;
7971;SDS011;4031;49.758;6.120;2023-07-13T12:03:58;0.70;;;0.60;;
7971;SDS011;4031;49.758;6.120;2023-07-13T12:06:30;0.83;;;0.60;;
7971;SDS011;4031;49.758;6.120;2023-07-13T12:09:01;1.20;;;0.60;;
7971;SDS011;4031;49.758;6.120;2023-07-13T12:11:39;1.90;;;0.77;;
7971;SDS011;4031;49.758;6.120;2023-07-13T12:14:12;1.40;;;0.70;;
7971;SDS011;4031;49.758;6.120;2023-07-13T12:16:42;3.23;;;1.00;;
7971;SDS011;4031;49.758;6.120;2023-07-13T12:19:27;1.00;;;0.73;;
7971;SDS011;4031;49.758;6.120;2023-07-13T12:21:54;1.70;;;0.80;;
7971;SDS011;4031;49.758;6.120;2023-07-13T12:24:22;1.53;;;0.60;;
7971;SDS011;4031;49.758;6.120;2023-07-13T12:29:32;1.10;;;0.70;;
7971;SDS011;4031;49.758;6.120;2023-07-13T12:31:58;1.23;;;0.70;;
7971;SDS011;4031;49.758;6.120;2023-07-13T12:34:25;0.87;;;0.60;;
7971;SDS011;4031;49.758;6.120;2023-07-13T12:36:52;2.30;;;0.77;;
7971;SDS011;4031;49.758;6.120;2023-07-13T12:39:21;3.27;;;0.60;;
7971;SDS011;4031;49.758;6.120;2023-07-13T12:41:54;1.27;;;0.60;;
7971;SDS011;4031;49.758;6.120;2023-07-13T12:44:48;1.03;;;0.70;;
7971;SDS011;4031;49.758;6.120;2023-07-13T12:47:15;1.27;;;1.00;;
7971;SDS011;4031;49.758;6.120;2023-07-13T12:49:53;0.90;;;0.70;;
7971;SDS011;4031;49.758;6.120;2023-07-13T12:52:23;3.20;;;0.90;;
7971;SDS011;4031;49.758;6.120;2023-07-13T12:54:56;1.87;;;0.77;;
7971;SDS011;4031;49.758;6.120;2023-07-13T12:57:41;2.20;;;1.20;;
7971;SDS011;4031;49.758;6.120;2023-07-13T13:00:27;1.23;;;0.93;;
7971;SDS011;4031;49.758;6.120;2023-07-13T13:03:02;2.17;;;0.90;;
7971;SDS011;4031;49.758;6.120;2023-07-13T13:05:47;0.70;;;0.60;;
7971;SDS011;4031;49.758;6.120;2023-07-13T13:08:13;1.10;;;0.90;;
7971;SDS011;4031;49.758;6.120;2023-07-13T13:10:39;1.17;;;0.77;;
7971;SDS011;4031;49.758;6.120;2023-07-13T13:13:05;1.70;;;0.77;;
7971;SDS011;4031;49.758;6.120;2023-07-13T13:15:31;0.67;;;0.60;;
7971;SDS011;4031;49.758;6.120;2023-07-13T13:17:57;1.73;;;0.97;;
7971;SDS011;4031;49.758;6.120;2023-07-13T13:20:23;1.70;;;0.90;;
7971;SDS011;4031;49.758;6.120;2023-07-13T13:22:50;2.77;;;0.57;;
7971;SDS011;4031;49.758;6.120;2023-07-13T13:25:17;2.20;;;0.80;;
7971;SDS011;4031;49.758;6.120;2023-07-13T13:27:44;1.53;;;0.70;;
7971;SDS011;4031;49.758;6.120;2023-07-13T13:30:14;1.40;;;0.90;;
7971;SDS011;4031;49.758;6.120;2023-07-13T13:32:43;0.80;;;0.80;;
7971;SDS011;4031;49.758;6.120;2023-07-13T13:35:15;1.00;;;0.60;;
7971;SDS011;4031;49.758;6.120;2023-07-13T13:37:42;1.77;;;1.00;;
7971;SDS011;4031;49.758;6.120;2023-07-13T13:40:15;2.67;;;1.00;;
7971;SDS011;4031;49.758;6.120;2023-07-13T13:42:45;1.23;;;0.90;;
7971;SDS011;4031;49.758;6.120;2023-07-13T13:45:11;2.63;;;1.00;;
7971;SDS011;4031;49.758;6.120;2023-07-13T13:47:37;1.00;;;0.73;;
7971;SDS011;4031;49.758;6.120;2023-07-13T13:50:14;2.40;;;0.80;;
7971;SDS011;4031;49.758;6.120;2023-07-13T13:52:43;4.83;;;0.90;;
7971;SDS011;4031;49.758;6.120;2023-07-13T13:55:15;2.43;;;1.07;;
7971;SDS011;4031;49.758;6.120;2023-07-13T13:57:44;2.60;;;1.00;;
7971;SDS011;4031;49.758;6.120;2023-07-13T14:00:11;2.77;;;1.20;;
7971;SDS011;4031;49.758;6.120;2023-07-13T14:02:40;1.23;;;0.80;;
7971;SDS011;4031;49.758;6.120;2023-07-13T14:05:11;1.03;;;0.70;;
7971;SDS011;4031;49.758;6.120;2023-07-13T14:07:39;1.23;;;0.80;;
7971;SDS011;4031;49.758;6.120;2023-07-13T14:10:08;0.80;;;0.80;;
7971;SDS011;4031;49.758;6.120;2023-07-13T14:12:44;5.70;;;0.93;;
7971;SDS011;4031;49.758;6.120;2023-07-13T14:15:23;1.30;;;0.83;;
7971;SDS011;4031;49.758;6.120;2023-07-13T14:17:51;5.30;;;0.87;;
7971;SDS011;4031;49.758;6.120;2023-07-13T14:20:19;1.00;;;0.80;;
7971;SDS011;4031;49.758;6.120;2023-07-13T14:22:48;0.83;;;0.80;;
7971;SDS011;4031;49.758;6.120;2023-07-13T14:25:16;1.03;;;0.70;;
7971;SDS011;4031;49.758;6.120;2023-07-13T14:27:43;3.60;;;0.90;;
7971;SDS011;4031;49.758;6.120;2023-07-13T14:30:14;1.23;;;1.10;;
7971;SDS011;4031;49.758;6.120;2023-07-13T14:32:45;1.53;;;0.80;;
7971;SDS011;4031;49.758;6.120;2023-07-13T14:35:15;1.17;;;0.67;;
7971;SDS011;4031;49.758;6.120;2023-07-13T14:37:45;1.57;;;0.70;;
7971;SDS011;4031;49.758;6.120;2023-07-13T14:42:50;2.37;;;0.70;;
7971;SDS011;4031;49.758;6.120;2023-07-13T14:45:17;1.27;;;0.70;;
7971;SDS011;4031;49.758;6.120;2023-07-13T14:47:45;2.07;;;0.80;;
7971;SDS011;4031;49.758;6.120;2023-07-13T14:50:13;0.73;;;0.70;;
7971;SDS011;4031;49.758;6.120;2023-07-13T14:52:55;1.53;;;0.80;;
7971;SDS011;4031;49.758;6.120;2023-07-13T14:55:20;1.63;;;0.80;;
7971;SDS011;4031;49.758;6.120;2023-07-13T14:57:46;2.20;;;1.00;;
7971;SDS011;4031;49.758;6.120;2023-07-13T15:00:14;1.30;;;0.80;;
7971;SDS011;4031;49.758;6.120;2023-07-13T15:02:43;1.50;;;0.60;;
7971;SDS011;4031;49.758;6.120;2023-07-13T15:05:13;0.80;;;0.63;;
7971;SDS011;4031;49.758;6.120;2023-07-13T15:07:42;1.83;;;1.00;;
7971;SDS011;4031;49.758;6.120;2023-07-13T15:10:13;1.87;;;0.70;;
7971;SDS011;4031;49.758;6.120;2023-07-13T15:12:40;1.10;;;0.50;;
7971;SDS011;4031;49.758;6.120;2023-07-13T15:15:06;2.63;;;0.80;;
7971;SDS011;4031;49.758;6.120;2023-07-13T15:17:37;3.90;;;0.90;;
7971;SDS011;4031;49.758;6.120;2023-07-13T15:20:19;1.20;;;0.70;;
7971;SDS011;4031;49.758;6.120;2023-07-13T15:22:53;1.40;;;0.77;;
7971;SDS011;4031;49.758;6.120;2023-07-13T15:25:20;1.00;;;0.63;;
7971;SDS011;4031;49.758;6.120;2023-07-13T15:27:49;2.47;;;0.87;;
7971;SDS011;4031;49.758;6.120;2023-07-13T15:30:16;1.23;;;1.13;;
7971;SDS011;4031;49.758;6.120;2023-07-13T15:32:43;0.93;;;0.67;;
7971;SDS011;4031;49.758;6.120;2023-07-13T15:35:17;1.90;;;1.00;;
7971;SDS011;4031;49.758;6.120;2023-07-13T15:37:49;2.23;;;0.90;;
7971;SDS011;4031;49.758;6.120;2023-07-13T15:40:15;1.80;;;0.70;;
7971;SDS011;4031;49.758;6.120;2023-07-13T15:42:42;0.90;;;0.70;;
7971;SDS011;4031;49.758;6.120;2023-07-13T15:47:46;4.77;;;0.90;;
7971;SDS011;4031;49.758;6.120;2023-07-13T15:50:18;1.63;;;0.80;;
7971;SDS011;4031;49.758;6.120;2023-07-13T15:52:52;1.00;;;0.70;;
7971;SDS011;4031;49.758;6.120;2023-07-13T15:55:20;1.10;;;0.70;;
7971;SDS011;4031;49.758;6.120;2023-07-13T15:57:47;1.10;;;0.80;;
7971;SDS011;4031;49.758;6.120;2023-07-13T16:00:25;0.90;;;0.80;;
7971;SDS011;4031;49.758;6.120;2023-07-13T16:02:52;2.73;;;0.80;;
7971;SDS011;4031;49.758;6.120;2023-07-13T16:05:19;1.90;;;1.00;;
7971;SDS011;4031;49.758;6.120;2023-07-13T16:07:48;1.03;;;0.80;;
7971;SDS011;4031;49.758;6.120;2023-07-13T16:10:17;1.47;;;0.83;;
7971;SDS011;4031;49.758;6.120;2023-07-13T16:12:52;1.10;;;0.70;;
7971;SDS011;4031;49.758;6.120;2023-07-13T16:15:20;0.70;;;0.63;;
7971;SDS011;4031;49.758;6.120;2023-07-13T16:17:47;0.80;;;0.70;;
7971;SDS011;4031;49.758;6.120;2023-07-13T16:20:14;0.80;;;0.80;;
7971;SDS011;4031;49.758;6.120;2023-07-13T16:22:41;1.47;;;0.80;;
7971;SDS011;4031;49.758;6.120;2023-07-13T16:25:14;1.27;;;0.67;;
7971;SDS011;4031;49.758;6.120;2023-07-13T16:27:46;1.57;;;1.00;;